Time;durP1;ratioP1;P1;durP2;ratioP2;P2;SDS_P1;SDS_P2;PMS_P1;PMS_P2;Temp;Humidity;BMP_temperature;BMP_pressure;BME280_temperature;BME280_humidity;BME280_pressure;Samples;Min_cycle;Max_cycle;Signal;HPM_P1;HPM_P2
2023/09/30 00:01:29;;;;;;;12.60;9.47;;;;;;;;;;737399;187;815195;-67
2023/09/30 00:03:55;;;;;;;10.93;9.03;;;;;;;;;;745196;186;919061;-67
2023/09/30 00:06:21;;;;;;;12.43;8.40;;;;;;;;;;738446;186;919008;-67
2023/09/30 00:08:47;;;;;;;14.77;10.80;;;;;;;;;;735922;188;919532;-65
2023/09/30 00:11:13;;;;;;;11.33;9.40;;;;;;;;;;739955;189;919786;-67
2023/09/30 00:13:39;;;;;;;13.87;10.10;;;;;;;;;;730796;188;919209;-69
2023/09/30 00:16:05;;;;;;;11.90;8.17;;;;;;;;;;720995;191;918771;-64
2023/09/30 00:18:31;;;;;;;11.00;8.80;;;;;;;;;;724538;192;919697;-67
2023/09/30 00:20:57;;;;;;;17.80;9.60;;;;;;;;;;717566;194;920018;-65
2023/09/30 00:23:23;;;;;;;17.00;9.20;;;;;;;;;;733948;188;922776;-65
2023/09/30 00:25:50;;;;;;;15.90;10.53;;;;;;;;;;736460;188;938435;-64
2023/09/30 00:28:15;;;;;;;14.73;10.27;;;;;;;;;;709608;197;919266;-67
2023/09/30 00:30:41;;;;;;;12.70;9.23;;;;;;;;;;738448;187;950051;-64
2023/09/30 00:33:07;;;;;;;15.00;9.80;;;;;;;;;;742799;187;917366;-67
2023/09/30 00:35:33;;;;;;;11.87;9.60;;;;;;;;;;744161;187;919568;-69
2023/09/30 00:37:59;;;;;;;12.50;9.57;;;;;;;;;;738873;188;919908;-63
2023/09/30 00:40:24;;;;;;;14.73;9.23;;;;;;;;;;743245;187;918920;-67
2023/09/30 00:42:50;;;;;;;12.52;9.23;;;;;;;;;;743711;187;919097;-65
2023/09/30 00:45:16;;;;;;;16.03;10.33;;;;;;;;;;737702;187;917300;-69
2023/09/30 00:47:42;;;;;;;16.57;10.47;;;;;;;;;;737417;188;918026;-67
2023/09/30 00:50:10;;;;;;;11.68;9.52;;;;;;;;;;737081;189;920088;-64
2023/09/30 00:52:34;;;;;;;12.37;10.43;;;;;;;;;;744657;183;918917;-64
2023/09/30 00:55:00;;;;;;;13.43;10.60;;;;;;;;;;719493;193;934930;-67
2023/09/30 00:57:27;;;;;;;11.40;10.17;;;;;;;;;;731924;187;919831;-63
2023/09/30 00:59:52;;;;;;;13.13;10.47;;;;;;;;;;739441;189;816764;-64
2023/09/30 01:02:18;;;;;;;13.45;10.02;;;;;;;;;;743544;187;918787;-64
2023/09/30 01:04:43;;;;;;;15.00;10.57;;;;;;;;;;741524;187;918826;-65
2023/09/30 01:07:09;;;;;;;14.30;9.93;;;;;;;;;;745424;187;918986;-64
2023/09/30 01:09:36;;;;;;;12.10;9.50;;;;;;;;;;739071;187;918513;-67
2023/09/30 01:12:01;;;;;;;16.80;10.00;;;;;;;;;;741739;186;919779;-64
2023/09/30 01:14:28;;;;;;;12.40;9.53;;;;;;;;;;745147;186;915847;-68
2023/09/30 01:16:53;;;;;;;16.47;10.37;;;;;;;;;;744864;186;920917;-67
2023/09/30 01:19:19;;;;;;;15.13;9.73;;;;;;;;;;744203;187;919052;-64
2023/09/30 01:21:48;;;;;;;16.55;10.85;;;;;;;;;;742032;187;910249;-64
2023/09/30 01:24:14;;;;;;;15.50;10.43;;;;;;;;;;748189;187;826833;-68
2023/09/30 01:26:40;;;;;;;12.63;10.00;;;;;;;;;;741062;187;919688;-68
2023/09/30 01:29:05;;;;;;;15.67;10.97;;;;;;;;;;740499;188;874550;-67
2023/09/30 01:31:31;;;;;;;14.77;10.27;;;;;;;;;;745592;187;917722;-67
2023/09/30 01:33:57;;;;;;;16.50;11.70;;;;;;;;;;738689;187;906499;-65
2023/09/30 01:36:23;;;;;;;16.07;10.67;;;;;;;;;;736494;187;918821;-65
2023/09/30 01:38:49;;;;;;;12.40;10.07;;;;;;;;;;745088;187;919016;-65
2023/09/30 01:41:16;;;;;;;15.83;10.57;;;;;;;;;;742138;187;916320;-67
2023/09/30 01:43:40;;;;;;;10.53;9.43;;;;;;;;;;736499;189;840216;-68
2023/09/30 01:46:06;;;;;;;15.30;10.93;;;;;;;;;;740687;187;859335;-65
2023/09/30 01:48:32;;;;;;;13.83;9.70;;;;;;;;;;744748;187;920128;-67
2023/09/30 01:50:58;;;;;;;13.23;9.90;;;;;;;;;;741253;187;919337;-65
2023/09/30 01:53:24;;;;;;;13.60;10.53;;;;;;;;;;735287;187;919125;-65
2023/09/30 01:55:50;;;;;;;14.50;10.47;;;;;;;;;;741611;187;918649;-65
2023/09/30 01:58:15;;;;;;;15.17;10.57;;;;;;;;;;734916;187;917440;-65
2023/09/30 02:00:41;;;;;;;14.20;10.73;;;;;;;;;;739991;188;917213;-65
2023/09/30 02:03:07;;;;;;;19.83;10.53;;;;;;;;;;745127;187;918578;-69
2023/09/30 02:05:33;;;;;;;16.90;11.20;;;;;;;;;;739073;188;918817;-68
2023/09/30 02:07:59;;;;;;;16.50;11.27;;;;;;;;;;739040;187;918820;-68
2023/09/30 02:10:25;;;;;;;14.60;9.38;;;;;;;;;;737167;187;919586;-68
2023/09/30 02:12:51;;;;;;;11.90;9.83;;;;;;;;;;740907;187;919795;-66
2023/09/30 02:15:17;;;;;;;15.90;11.13;;;;;;;;;;745621;187;920491;-62
2023/09/30 02:17:45;;;;;;;16.40;11.63;;;;;;;;;;739102;187;916366;-65
2023/09/30 02:20:15;;;;;;;13.67;9.97;;;;;;;;;;744747;187;918920;-62
2023/09/30 02:22:35;;;;;;;15.00;10.50;;;;;;;;;;742816;186;919357;-65
2023/09/30 02:25:00;;;;;;;19.10;10.90;;;;;;;;;;741030;186;919222;-67
2023/09/30 02:27:26;;;;;;;14.60;10.20;;;;;;;;;;749090;187;882147;-65
2023/09/30 02:29:52;;;;;;;16.65;11.10;;;;;;;;;;745058;186;917868;-64
2023/09/30 02:32:18;;;;;;;17.80;11.50;;;;;;;;;;743561;187;918679;-67
2023/09/30 02:34:44;;;;;;;21.17;10.80;;;;;;;;;;742584;187;920637;-67
2023/09/30 02:37:10;;;;;;;15.77;9.70;;;;;;;;;;743159;187;919057;-62
2023/09/30 02:39:37;;;;;;;14.13;10.83;;;;;;;;;;735477;187;924300;-62
2023/09/30 02:42:01;;;;;;;12.02;9.45;;;;;;;;;;740325;187;919345;-62
2023/09/30 02:44:27;;;;;;;14.53;10.87;;;;;;;;;;747722;187;848823;-65
2023/09/30 02:46:53;;;;;;;16.40;10.87;;;;;;;;;;738825;187;918594;-62
2023/09/30 02:49:19;;;;;;;19.13;10.40;;;;;;;;;;740811;187;920082;-66
2023/09/30 02:51:45;;;;;;;14.93;10.67;;;;;;;;;;743931;186;918530;-68
2023/09/30 02:54:15;;;;;;;16.27;11.30;;;;;;;;;;735754;189;920703;-68
2023/09/30 02:56:36;;;;;;;15.60;10.47;;;;;;;;;;742542;187;804686;-65
2023/09/30 02:59:02;;;;;;;15.00;10.23;;;;;;;;;;745160;187;913148;-66
2023/09/30 03:01:28;;;;;;;14.57;10.67;;;;;;;;;;739487;189;918532;-65
2023/09/30 03:03:54;;;;;;;12.13;10.87;;;;;;;;;;739757;187;816701;-70
2023/09/30 03:06:20;;;;;;;13.07;9.77;;;;;;;;;;741609;187;915519;-67
2023/09/30 03:08:46;;;;;;;14.93;10.33;;;;;;;;;;743497;185;918935;-66
2023/09/30 03:11:12;;;;;;;13.60;9.43;;;;;;;;;;740280;188;918240;-65
2023/09/30 03:13:37;;;;;;;12.53;9.80;;;;;;;;;;739656;188;918714;-68
2023/09/30 03:16:04;;;;;;;13.97;10.20;;;;;;;;;;741129;187;919517;-66
2023/09/30 03:18:30;;;;;;;19.60;11.40;;;;;;;;;;736013;187;918214;-66
2023/09/30 03:20:56;;;;;;;15.23;10.50;;;;;;;;;;739374;187;918941;-68
2023/09/30 03:23:21;;;;;;;15.97;10.33;;;;;;;;;;744369;187;918933;-69
2023/09/30 03:25:47;;;;;;;13.20;9.90;;;;;;;;;;735889;188;921187;-69
2023/09/30 03:28:14;;;;;;;12.50;9.70;;;;;;;;;;738577;187;917968;-69
2023/09/30 03:30:38;;;;;;;13.80;9.40;;;;;;;;;;745147;188;816593;-66
2023/09/30 03:33:05;;;;;;;12.17;9.83;;;;;;;;;;744238;186;920113;-69
2023/09/30 03:35:32;;;;;;;12.20;9.90;;;;;;;;;;746761;186;919148;-67
2023/09/30 03:37:56;;;;;;;17.17;10.30;;;;;;;;;;742494;186;917834;-66
2023/09/30 03:40:27;;;;;;;17.50;9.70;;;;;;;;;;745031;186;921478;-66
2023/09/30 03:42:50;;;;;;;14.75;10.20;;;;;;;;;;736872;187;918838;-66
2023/09/30 03:45:15;;;;;;;12.77;9.97;;;;;;;;;;738181;188;919185;-70
2023/09/30 03:47:41;;;;;;;13.55;10.45;;;;;;;;;;748359;187;919398;-67
2023/09/30 03:50:13;;;;;;;16.90;10.50;;;;;;;;;;743988;187;819735;-69
2023/09/30 03:52:34;;;;;;;16.67;11.10;;;;;;;;;;744110;187;918644;-69
2023/09/30 03:54:59;;;;;;;15.00;10.80;;;;;;;;;;744312;187;920560;-69
2023/09/30 03:57:25;;;;;;;15.10;9.60;;;;;;;;;;741187;187;924517;-67
2023/09/30 03:59:52;;;;;;;12.00;9.50;;;;;;;;;;740404;187;919495;-66
2023/09/30 04:02:17;;;;;;;13.17;9.90;;;;;;;;;;737751;187;817100;-66
2023/09/30 04:04:43;;;;;;;11.60;9.77;;;;;;;;;;745400;188;919062;-70
2023/09/30 04:07:10;;;;;;;11.17;8.77;;;;;;;;;;743014;187;816205;-69
2023/09/30 04:09:35;;;;;;;15.57;9.10;;;;;;;;;;736824;187;918671;-69
2023/09/30 04:12:01;;;;;;;26.43;10.13;;;;;;;;;;743160;187;918070;-67
2023/09/30 04:14:26;;;;;;;13.40;9.23;;;;;;;;;;735312;187;945061;-69
2023/09/30 04:16:54;;;;;;;11.10;9.27;;;;;;;;;;735599;188;922351;-70
2023/09/30 04:19:18;;;;;;;12.60;10.30;;;;;;;;;;745332;188;821594;-65
2023/09/30 04:21:44;;;;;;;12.07;9.50;;;;;;;;;;742549;187;918286;-70
2023/09/30 04:24:10;;;;;;;15.30;9.57;;;;;;;;;;743063;187;913990;-69
2023/09/30 04:26:36;;;;;;;16.33;10.30;;;;;;;;;;734794;187;917636;-69
2023/09/30 04:29:02;;;;;;;15.57;9.65;;;;;;;;;;737414;190;803337;-69
2023/09/30 04:31:28;;;;;;;12.77;10.30;;;;;;;;;;742760;186;917153;-69
2023/09/30 04:33:53;;;;;;;11.70;9.70;;;;;;;;;;742788;187;914453;-66
2023/09/30 04:36:19;;;;;;;14.70;10.87;;;;;;;;;;743853;187;917723;-66
2023/09/30 04:38:45;;;;;;;17.40;12.90;;;;;;;;;;741064;187;817040;-66
2023/09/30 04:41:11;;;;;;;14.60;10.57;;;;;;;;;;737299;187;918980;-66
2023/09/30 04:43:39;;;;;;;13.43;10.07;;;;;;;;;;747100;186;628339;-66
2023/09/30 04:46:05;;;;;;;12.83;10.50;;;;;;;;;;746622;186;919854;-67
2023/09/30 04:48:32;;;;;;;15.60;9.10;;;;;;;;;;744340;186;815193;-66
2023/09/30 04:50:56;;;;;;;15.83;11.33;;;;;;;;;;740034;188;920416;-68
2023/09/30 04:53:23;;;;;;;13.57;11.30;;;;;;;;;;745712;187;628130;-69
2023/09/30 04:55:50;;;;;;;14.33;10.10;;;;;;;;;;740430;187;818307;-69
2023/09/30 04:58:14;;;;;;;17.23;10.15;;;;;;;;;;738410;187;920439;-69
2023/09/30 05:00:39;;;;;;;15.70;11.20;;;;;;;;;;747765;187;816949;-66
2023/09/30 05:03:05;;;;;;;18.77;10.50;;;;;;;;;;744026;187;917692;-66
2023/09/30 05:05:31;;;;;;;12.83;9.53;;;;;;;;;;746373;187;918770;-70
2023/09/30 05:07:57;;;;;;;13.27;10.40;;;;;;;;;;747985;187;918806;-66
2023/09/30 05:10:24;;;;;;;18.40;11.40;;;;;;;;;;739625;187;919030;-66
2023/09/30 05:12:49;;;;;;;13.70;9.73;;;;;;;;;;742095;187;914909;-66
2023/09/30 05:15:15;;;;;;;14.07;11.70;;;;;;;;;;744627;187;926262;-65
2023/09/30 05:17:43;;;;;;;15.87;11.33;;;;;;;;;;732720;189;894114;-66
2023/09/30 05:20:09;;;;;;;14.60;11.23;;;;;;;;;;734723;189;816197;-68
2023/09/30 05:22:35;;;;;;;14.70;10.15;;;;;;;;;;712307;193;851907;-68
2023/09/30 05:25:00;;;;;;;15.00;11.30;;;;;;;;;;731057;191;904724;-68
2023/09/30 05:27:27;;;;;;;20.47;11.73;;;;;;;;;;712569;194;925599;-69
2023/09/30 05:29:52;;;;;;;13.77;9.60;;;;;;;;;;739904;187;907835;-65
2023/09/30 05:32:18;;;;;;;15.70;11.30;;;;;;;;;;744526;187;914745;-65
2023/09/30 05:34:44;;;;;;;14.37;11.77;;;;;;;;;;740606;187;816732;-65
2023/09/30 05:37:12;;;;;;;17.30;11.90;;;;;;;;;;741541;187;919481;-66
2023/09/30 05:39:37;;;;;;;12.13;9.55;;;;;;;;;;742593;187;920833;-68
2023/09/30 05:42:02;;;;;;;14.03;11.03;;;;;;;;;;740079;187;919212;-66
2023/09/30 05:44:27;;;;;;;14.53;11.60;;;;;;;;;;737598;188;918102;-64
2023/09/30 05:46:54;;;;;;;13.70;11.63;;;;;;;;;;738685;188;919668;-68
2023/09/30 05:49:20;;;;;;;13.00;11.27;;;;;;;;;;747239;187;920642;-65
2023/09/30 05:51:46;;;;;;;18.47;12.90;;;;;;;;;;740188;187;919409;-70
2023/09/30 05:54:11;;;;;;;13.10;10.60;;;;;;;;;;738142;186;827065;-68
2023/09/30 05:56:37;;;;;;;15.40;11.68;;;;;;;;;;746564;186;918293;-71
2023/09/30 05:59:04;;;;;;;13.93;11.90;;;;;;;;;;744455;186;817587;-69
2023/09/30 06:01:29;;;;;;;13.90;11.50;;;;;;;;;;740664;188;911291;-69
2023/09/30 06:03:55;;;;;;;16.10;11.93;;;;;;;;;;743169;186;915728;-68
2023/09/30 06:06:22;;;;;;;15.00;11.75;;;;;;;;;;743661;187;820691;-69
2023/09/30 06:08:47;;;;;;;14.63;10.97;;;;;;;;;;744272;187;919170;-71
2023/09/30 06:11:18;;;;;;;14.60;11.30;;;;;;;;;;741753;187;912965;-69
2023/09/30 06:13:43;;;;;;;14.00;11.07;;;;;;;;;;735187;189;915655;-71
2023/09/30 06:16:11;;;;;;;15.43;11.03;;;;;;;;;;740434;187;938675;-68
2023/09/30 06:18:35;;;;;;;16.00;11.53;;;;;;;;;;740907;186;936827;-70
2023/09/30 06:21:01;;;;;;;16.60;12.77;;;;;;;;;;742813;187;918750;-71
2023/09/30 06:23:29;;;;;;;12.57;11.27;;;;;;;;;;740766;188;866632;-69
2023/09/30 06:25:53;;;;;;;13.43;10.33;;;;;;;;;;737725;189;917393;-69
2023/09/30 06:28:25;;;;;;;17.23;12.23;;;;;;;;;;742591;187;919878;-70
2023/09/30 06:30:46;;;;;;;25.53;10.63;;;;;;;;;;742527;187;920002;-68
2023/09/30 06:33:12;;;;;;;15.07;12.00;;;;;;;;;;742821;187;916914;-68
2023/09/30 06:35:40;;;;;;;15.13;10.43;;;;;;;;;;742284;187;805965;-68
2023/09/30 06:38:03;;;;;;;15.70;12.03;;;;;;;;;;743857;187;917625;-68
2023/09/30 06:40:28;;;;;;;15.17;11.90;;;;;;;;;;740013;187;912510;-68
2023/09/30 06:42:54;;;;;;;16.57;12.20;;;;;;;;;;742879;187;919089;-70
2023/09/30 06:45:21;;;;;;;22.42;11.50;;;;;;;;;;746478;187;869893;-68
2023/09/30 06:47:45;;;;;;;15.80;12.20;;;;;;;;;;736570;188;916329;-70
2023/09/30 06:50:12;;;;;;;19.63;11.50;;;;;;;;;;731959;189;918353;-69
2023/09/30 06:52:37;;;;;;;19.03;11.00;;;;;;;;;;733492;189;919230;-71
2023/09/30 06:55:05;;;;;;;19.13;12.03;;;;;;;;;;736430;189;919041;-71
2023/09/30 06:57:31;;;;;;;15.50;11.37;;;;;;;;;;735589;189;919882;-69
2023/09/30 06:59:57;;;;;;;16.50;11.97;;;;;;;;;;719635;192;817455;-68
2023/09/30 07:02:23;;;;;;;12.70;10.30;;;;;;;;;;723625;192;817927;-69
2023/09/30 07:04:49;;;;;;;15.00;11.60;;;;;;;;;;727561;191;918715;-69
2023/09/30 07:07:15;;;;;;;18.47;12.07;;;;;;;;;;741114;187;819050;-69
2023/09/30 07:09:41;;;;;;;15.57;11.37;;;;;;;;;;748425;186;817108;-71
2023/09/30 07:12:06;;;;;;;24.53;13.77;;;;;;;;;;738096;186;920897;-70
2023/09/30 07:14:32;;;;;;;15.68;10.23;;;;;;;;;;740790;186;816824;-70
2023/09/30 07:16:58;;;;;;;17.50;12.83;;;;;;;;;;741958;187;918851;-69
2023/09/30 07:19:24;;;;;;;17.53;10.77;;;;;;;;;;741592;188;936996;-70
2023/09/30 07:21:50;;;;;;;15.20;12.10;;;;;;;;;;741479;188;917678;-70
2023/09/30 07:24:16;;;;;;;16.15;12.55;;;;;;;;;;741354;188;920543;-69
2023/09/30 07:26:42;;;;;;;20.37;12.03;;;;;;;;;;743505;187;917406;-69
2023/09/30 07:29:08;;;;;;;17.80;12.80;;;;;;;;;;745336;187;921414;-69
2023/09/30 07:31:34;;;;;;;21.33;12.83;;;;;;;;;;743248;187;916471;-69
2023/09/30 07:33:59;;;;;;;17.23;12.50;;;;;;;;;;746592;187;804711;-69
2023/09/30 07:36:25;;;;;;;18.50;13.70;;;;;;;;;;738005;187;920794;-69
2023/09/30 07:38:51;;;;;;;19.40;12.60;;;;;;;;;;738927;187;1019813;-69
2023/09/30 07:41:17;;;;;;;20.30;13.63;;;;;;;;;;741750;188;918208;-68
2023/09/30 07:43:43;;;;;;;14.03;11.93;;;;;;;;;;739891;187;919153;-68
2023/09/30 07:46:09;;;;;;;18.58;13.62;;;;;;;;;;742791;187;1125223;-69
2023/09/30 07:48:35;;;;;;;23.90;13.67;;;;;;;;;;741247;189;921619;-70
2023/09/30 07:51:00;;;;;;;19.50;14.00;;;;;;;;;;736716;189;918390;-70
2023/09/30 07:53:26;;;;;;;16.27;12.97;;;;;;;;;;720197;191;918526;-70
2023/09/30 07:55:54;;;;;;;18.10;12.00;;;;;;;;;;741625;187;921483;-70
2023/09/30 07:58:18;;;;;;;16.83;12.03;;;;;;;;;;745991;187;918968;-70
2023/09/30 08:00:45;;;;;;;15.17;12.10;;;;;;;;;;740564;187;918906;-70
2023/09/30 08:03:09;;;;;;;17.00;13.20;;;;;;;;;;740992;187;753335;-69
2023/09/30 08:05:35;;;;;;;18.00;13.03;;;;;;;;;;742006;187;923736;-71
2023/09/30 08:08:01;;;;;;;21.33;12.77;;;;;;;;;;743139;187;917686;-69
2023/09/30 08:10:29;;;;;;;20.20;12.73;;;;;;;;;;743133;187;915255;-70
2023/09/30 08:12:55;;;;;;;18.80;12.10;;;;;;;;;;743155;186;899985;-69
2023/09/30 08:15:19;;;;;;;17.07;12.50;;;;;;;;;;739803;187;886368;-70
2023/09/30 08:17:44;;;;;;;17.43;13.27;;;;;;;;;;742308;186;818960;-70
2023/09/30 08:20:11;;;;;;;14.63;12.27;;;;;;;;;;741334;187;818116;-70
2023/09/30 08:22:36;;;;;;;18.23;12.40;;;;;;;;;;749083;184;624443;-70
2023/09/30 08:25:02;;;;;;;17.50;12.60;;;;;;;;;;738634;188;631914;-70
2023/09/30 08:27:28;;;;;;;16.13;11.80;;;;;;;;;;724430;191;622190;-70
2023/09/30 08:29:54;;;;;;;16.37;13.20;;;;;;;;;;721207;192;916015;-70
2023/09/30 08:32:21;;;;;;;18.90;13.97;;;;;;;;;;718245;192;814004;-68
2023/09/30 08:34:46;;;;;;;19.30;13.70;;;;;;;;;;725930;191;915678;-69
2023/09/30 08:37:12;;;;;;;22.27;13.67;;;;;;;;;;714335;195;897064;-72
2023/09/30 08:39:39;;;;;;;22.67;13.77;;;;;;;;;;722572;191;816851;-69
2023/09/30 08:42:04;;;;;;;16.75;14.65;;;;;;;;;;733058;179;918290;-75
2023/09/30 08:44:30;;;;;;;18.20;14.43;;;;;;;;;;781699;178;815919;-75
2023/09/30 08:46:56;;;;;;;16.60;12.57;;;;;;;;;;770371;182;818540;-71
2023/09/30 08:49:22;;;;;;;15.37;12.87;;;;;;;;;;765432;183;919480;-68
2023/09/30 08:51:49;;;;;;;18.10;13.40;;;;;;;;;;772248;180;815764;-69
2023/09/30 08:54:14;;;;;;;18.30;13.40;;;;;;;;;;764986;182;624995;-73
2023/09/30 08:56:40;;;;;;;19.20;14.53;;;;;;;;;;759786;180;913612;-68
2023/09/30 08:59:05;;;;;;;22.20;14.10;;;;;;;;;;760803;183;918957;-72
2023/09/30 09:01:31;;;;;;;18.53;15.40;;;;;;;;;;769504;180;917389;-69
2023/09/30 09:03:57;;;;;;;16.17;12.90;;;;;;;;;;776469;179;917835;-69
2023/09/30 09:06:23;;;;;;;18.63;14.23;;;;;;;;;;771719;179;919343;-68
2023/09/30 09:08:49;;;;;;;19.80;14.50;;;;;;;;;;764446;180;918936;-68
2023/09/30 09:11:15;;;;;;;19.40;15.63;;;;;;;;;;755589;183;921722;-73
2023/09/30 09:13:49;;;;;;;21.60;13.50;;;;;;;;;;763437;183;816107;-68
2023/09/30 09:16:12;;;;;;;14.60;12.60;;;;;;;;;;762704;183;918905;-72
2023/09/30 09:18:38;;;;;;;16.53;14.17;;;;;;;;;;760208;183;820942;-72
2023/09/30 09:21:09;;;;;;;18.77;15.00;;;;;;;;;;759735;183;921463;-68
2023/09/30 09:23:34;;;;;;;18.73;14.20;;;;;;;;;;757409;183;1021989;-68
2023/09/30 09:25:59;;;;;;;18.30;15.20;;;;;;;;;;759034;184;708505;-72
2023/09/30 09:28:25;;;;;;;23.43;16.00;;;;;;;;;;773336;180;919710;-68
2023/09/30 09:30:51;;;;;;;21.50;15.60;;;;;;;;;;766235;178;899866;-68
2023/09/30 09:33:17;;;;;;;17.73;13.80;;;;;;;;;;761164;183;872426;-69
2023/09/30 09:35:43;;;;;;;20.20;14.00;;;;;;;;;;761821;184;909264;-71
2023/09/30 09:38:09;;;;;;;19.83;14.83;;;;;;;;;;755891;184;918442;-70
2023/09/30 09:40:35;;;;;;;20.20;16.20;;;;;;;;;;759091;182;918186;-70
2023/09/30 09:43:04;;;;;;;25.33;16.33;;;;;;;;;;762600;183;923052;-70
2023/09/30 09:45:26;;;;;;;18.20;14.70;;;;;;;;;;761893;182;918736;-70
2023/09/30 09:47:52;;;;;;;27.30;16.60;;;;;;;;;;755284;182;953198;-70
2023/09/30 09:50:20;;;;;;;21.40;15.57;;;;;;;;;;763398;182;818948;-69
2023/09/30 09:52:45;;;;;;;16.33;14.60;;;;;;;;;;751864;182;917592;-70
2023/09/30 09:55:11;;;;;;;19.43;15.97;;;;;;;;;;772099;178;828624;-70
2023/09/30 09:57:37;;;;;;;20.30;15.03;;;;;;;;;;754728;184;919702;-70
2023/09/30 10:00:11;;;;;;;20.33;15.67;;;;;;;;;;764367;183;919615;-70
2023/09/30 10:02:29;;;;;;;18.00;14.40;;;;;;;;;;757875;183;918983;-70
2023/09/30 10:04:56;;;;;;;20.23;16.07;;;;;;;;;;763844;180;937145;-70
2023/09/30 10:07:22;;;;;;;20.83;16.10;;;;;;;;;;761465;183;820066;-71
2023/09/30 10:09:48;;;;;;;19.17;14.90;;;;;;;;;;758581;183;920737;-70
2023/09/30 10:12:14;;;;;;;27.43;18.37;;;;;;;;;;756580;184;920921;-70
2023/09/30 10:14:40;;;;;;;23.53;16.57;;;;;;;;;;766546;183;814203;-70
2023/09/30 10:17:06;;;;;;;22.13;15.80;;;;;;;;;;772632;179;915921;-71
2023/09/30 10:19:32;;;;;;;23.27;15.93;;;;;;;;;;767026;180;918918;-70
2023/09/30 10:22:03;;;;;;;18.33;15.20;;;;;;;;;;765898;179;918861;-71
2023/09/30 10:24:29;;;;;;;18.27;14.93;;;;;;;;;;776083;179;919068;-70
2023/09/30 10:27:01;;;;;;;20.30;16.70;;;;;;;;;;761732;183;899096;-71
2023/09/30 10:29:27;;;;;;;21.50;16.30;;;;;;;;;;759653;183;915742;-70
2023/09/30 10:31:52;;;;;;;21.80;15.43;;;;;;;;;;757081;184;939196;-71
2023/09/30 10:34:20;;;;;;;19.13;14.50;;;;;;;;;;765131;183;915482;-70
2023/09/30 10:36:46;;;;;;;23.63;17.07;;;;;;;;;;757850;183;920864;-71
2023/09/30 10:39:14;;;;;;;21.50;17.27;;;;;;;;;;755253;183;944735;-70
2023/09/30 10:41:45;;;;;;;21.73;16.83;;;;;;;;;;765161;181;919115;-70
2023/09/30 10:44:15;;;;;;;19.83;17.73;;;;;;;;;;760019;182;817824;-70
2023/09/30 10:46:41;;;;;;;19.40;16.47;;;;;;;;;;761012;184;815962;-70
2023/09/30 10:49:12;;;;;;;20.10;16.30;;;;;;;;;;761715;183;816325;-69
2023/09/30 10:51:38;;;;;;;19.23;17.00;;;;;;;;;;764249;184;817128;-70
2023/09/30 10:54:05;;;;;;;19.67;15.80;;;;;;;;;;757515;183;918852;-71
2023/09/30 10:56:33;;;;;;;18.40;16.10;;;;;;;;;;756881;183;855460;-72
2023/09/30 10:59:00;;;;;;;17.07;15.27;;;;;;;;;;761080;183;825781;-70
2023/09/30 11:01:25;;;;;;;18.60;14.90;;;;;;;;;;761910;183;916901;-70
2023/09/30 11:03:51;;;;;;;19.70;14.97;;;;;;;;;;761790;183;919670;-71
2023/09/30 11:06:19;;;;;;;20.10;15.00;;;;;;;;;;763996;181;912861;-71
2023/09/30 11:08:45;;;;;;;16.97;14.83;;;;;;;;;;771533;181;817417;-71
2023/09/30 11:11:10;;;;;;;21.60;16.73;;;;;;;;;;760457;184;819787;-70
2023/09/30 11:13:36;;;;;;;22.10;15.70;;;;;;;;;;758025;183;918796;-70
2023/09/30 11:16:02;;;;;;;21.60;16.37;;;;;;;;;;761874;183;921231;-71
2023/09/30 11:18:28;;;;;;;22.43;16.50;;;;;;;;;;760231;184;816983;-70
2023/09/30 11:20:54;;;;;;;19.53;16.00;;;;;;;;;;755747;184;920257;-71
2023/09/30 11:23:19;;;;;;;26.47;16.90;;;;;;;;;;759569;184;919270;-71
2023/09/30 11:25:46;;;;;;;20.70;16.33;;;;;;;;;;763558;183;915443;-70
2023/09/30 11:28:13;;;;;;;21.97;16.73;;;;;;;;;;756204;184;928337;-71
2023/09/30 11:30:38;;;;;;;23.33;17.00;;;;;;;;;;755609;180;927590;-69
2023/09/30 11:33:04;;;;;;;17.57;15.60;;;;;;;;;;765111;182;810209;-71
2023/09/30 11:35:30;;;;;;;20.43;16.30;;;;;;;;;;751616;185;817770;-69
2023/09/30 11:37:56;;;;;;;22.73;18.70;;;;;;;;;;764685;183;915850;-70
2023/09/30 11:40:23;;;;;;;20.55;17.67;;;;;;;;;;759650;181;710897;-71
2023/09/30 11:42:54;;;;;;;21.67;17.67;;;;;;;;;;764493;181;816639;-71
2023/09/30 11:45:20;;;;;;;19.30;17.03;;;;;;;;;;761308;182;815520;-71
2023/09/30 11:47:45;;;;;;;27.83;18.53;;;;;;;;;;756984;182;942334;-71
2023/09/30 11:50:12;;;;;;;23.07;18.30;;;;;;;;;;769420;183;817182;-70
2023/09/30 11:52:40;;;;;;;22.40;16.83;;;;;;;;;;743469;185;916051;-70
2023/09/30 11:55:04;;;;;;;18.70;16.70;;;;;;;;;;760994;183;843820;-71
2023/09/30 11:57:30;;;;;;;23.00;18.27;;;;;;;;;;750322;184;815255;-71
2023/09/30 11:59:55;;;;;;;22.03;18.30;;;;;;;;;;747064;186;918928;-71
2023/09/30 12:02:21;;;;;;;21.40;18.80;;;;;;;;;;765846;181;918980;-71
2023/09/30 12:04:48;;;;;;;20.17;17.43;;;;;;;;;;744824;186;904098;-71
2023/09/30 12:07:13;;;;;;;19.23;16.53;;;;;;;;;;768613;179;885332;-72
2023/09/30 12:09:39;;;;;;;17.97;16.07;;;;;;;;;;759744;183;1011000;-71
2023/09/30 12:12:09;;;;;;;20.57;16.83;;;;;;;;;;766022;180;920747;-71
2023/09/30 12:14:32;;;;;;;22.90;17.83;;;;;;;;;;769451;180;921034;-71
2023/09/30 12:16:57;;;;;;;16.83;15.03;;;;;;;;;;756892;180;917428;-71
2023/09/30 12:19:24;;;;;;;18.23;16.00;;;;;;;;;;761556;181;914028;-71
2023/09/30 12:21:50;;;;;;;24.60;20.27;;;;;;;;;;772264;179;768488;-70
2023/09/30 12:24:17;;;;;;;24.63;18.60;;;;;;;;;;762016;181;915537;-72
2023/09/30 12:26:47;;;;;;;22.10;16.97;;;;;;;;;;764431;180;894037;-70
2023/09/30 12:29:09;;;;;;;21.00;13.40;;;;;;;;;;759649;180;885982;-72
2023/09/30 12:31:35;;;;;;;14.07;12.00;;;;;;;;;;760749;183;818122;-70
2023/09/30 12:34:02;;;;;;;16.93;12.30;;;;;;;;;;757346;183;919062;-71
2023/09/30 12:36:27;;;;;;;14.93;12.60;;;;;;;;;;756276;183;900156;-70
2023/09/30 12:38:52;;;;;;;20.20;13.65;;;;;;;;;;767947;181;917541;-71
2023/09/30 12:41:19;;;;;;;16.77;12.53;;;;;;;;;;759205;183;938079;-70
2023/09/30 12:43:45;;;;;;;16.00;13.40;;;;;;;;;;754574;184;924434;-70
2023/09/30 12:48:52;;;;;;;16.97;12.60;;;;;;;;;;796333;170;907297;-70
2023/09/30 12:51:18;;;;;;;17.50;12.80;;;;;;;;;;761256;180;919533;-69
2023/09/30 12:53:43;;;;;;;17.03;14.07;;;;;;;;;;772860;180;915538;-69
2023/09/30 12:56:09;;;;;;;15.57;13.17;;;;;;;;;;768451;180;914297;-70
2023/09/30 12:58:35;;;;;;;18.77;13.63;;;;;;;;;;777183;180;873698;-70
2023/09/30 13:01:01;;;;;;;17.10;15.03;;;;;;;;;;770334;180;795465;-70
2023/09/30 13:03:27;;;;;;;18.30;14.37;;;;;;;;;;770894;180;798159;-70
2023/09/30 13:05:54;;;;;;;18.13;14.23;;;;;;;;;;776987;180;919431;-70
2023/09/30 13:08:18;;;;;;;17.48;12.40;;;;;;;;;;771329;180;921319;-70
2023/09/30 13:10:45;;;;;;;16.17;12.40;;;;;;;;;;766406;181;906052;-70
2023/09/30 13:13:10;;;;;;;14.53;11.97;;;;;;;;;;769920;181;816643;-71
2023/09/30 13:15:37;;;;;;;15.73;12.90;;;;;;;;;;771977;180;919137;-71
2023/09/30 13:18:03;;;;;;;16.90;14.00;;;;;;;;;;768511;179;863004;-68
2023/09/30 13:20:28;;;;;;;17.97;14.20;;;;;;;;;;768437;181;916288;-70
2023/09/30 13:22:54;;;;;;;24.73;14.13;;;;;;;;;;766353;181;918917;-70
2023/09/30 13:25:20;;;;;;;17.30;12.20;;;;;;;;;;760192;182;816723;-69
2023/09/30 13:27:46;;;;;;;15.32;12.70;;;;;;;;;;766461;180;918776;-69
2023/09/30 13:30:12;;;;;;;18.37;13.93;;;;;;;;;;773973;180;918441;-68
2023/09/30 13:32:38;;;;;;;19.40;14.27;;;;;;;;;;770905;180;920290;-70
2023/09/30 13:35:05;;;;;;;16.60;13.97;;;;;;;;;;769902;181;920180;-70
2023/09/30 13:37:33;;;;;;;19.70;13.70;;;;;;;;;;775039;181;818503;-70
2023/09/30 13:39:55;;;;;;;15.00;12.20;;;;;;;;;;773342;180;918657;-69
2023/09/30 13:42:21;;;;;;;11.50;9.50;;;;;;;;;;771591;180;919238;-70
2023/09/30 13:44:47;;;;;;;14.80;10.43;;;;;;;;;;774772;180;937768;-69
2023/09/30 13:47:13;;;;;;;22.07;10.50;;;;;;;;;;768551;180;882917;-70
2023/09/30 13:49:39;;;;;;;12.07;8.10;;;;;;;;;;768614;180;920881;-70
2023/09/30 13:52:05;;;;;;;9.60;7.23;;;;;;;;;;766053;181;916140;-71
2023/09/30 13:54:31;;;;;;;9.50;6.93;;;;;;;;;;776774;180;718927;-70
2023/09/30 13:56:57;;;;;;;11.93;7.47;;;;;;;;;;766977;180;918747;-70
2023/09/30 13:59:23;;;;;;;7.47;6.30;;;;;;;;;;764818;180;920621;-69
2023/09/30 14:01:49;;;;;;;8.90;6.90;;;;;;;;;;775859;180;917482;-70